Time;durP1;ratioP1;P1;durP2;ratioP2;P2;SDS_P1;SDS_P2;PMS_P1;PMS_P2;Temp;Humidity;BMP_temperature;BMP_pressure;BME280_temperature;BME280_humidity;BME280_pressure;Samples;Min_cycle;Max_cycle;Signal;HPM_P1;HPM_P2
2022/09/01 00:01:38;;;;;;;2.40;2.20;;;24.70;49.60;;;;;;4932890;29;20543;-84
2022/09/01 00:04:29;;;;;;;3.03;2.20;;;24.70;50.20;;;;;;4934095;29;20426;-84
2022/09/01 00:06:58;;;;;;;2.33;2.13;;;24.70;49.70;;;;;;4954074;29;20422;-84
2022/09/01 00:10:14;;;;;;;2.50;2.30;;;24.70;49.70;;;;;;4951109;29;20489;-84
2022/09/01 00:12:48;;;;;;;3.03;2.73;;;24.70;49.60;;;;;;4953553;29;20426;-83
2022/09/01 00:15:36;;;;;;;1.90;1.70;;;24.70;49.60;;;;;;4953174;29;20460;-84
2022/09/01 00:18:30;;;;;;;2.50;2.30;;;24.70;49.60;;;;;;4982811;28;20427;-84
2022/09/01 00:21:07;;;;;;;2.50;2.30;;;24.80;49.60;;;;;;4930384;29;20843;-84
2022/09/01 00:23:44;;;;;;;2.73;2.10;;;24.80;49.60;;;;;;4914655;29;20423;-84
2022/09/01 00:33:01;;;;;;;2.67;2.00;;;24.80;49.60;;;;;;4930448;29;20416;-84
2022/09/01 00:39:33;;;;;;;2.43;2.23;;;24.70;49.50;;;;;;4893573;29;20884;-84
2022/09/01 00:46:06;;;;;;;2.47;2.27;;;24.70;50.10;;;;;;4837231;29;20428;-84
2022/09/01 00:48:41;;;;;;;4.30;1.90;;;24.70;49.60;;;;;;4839946;29;20468;-84
2022/09/01 00:51:27;;;;;;;2.17;1.90;;;24.70;49.60;;;;;;4856361;29;20422;-84
2022/09/01 00:54:05;;;;;;;2.27;2.00;;;24.70;49.60;;;;;;4855354;29;20423;-83
2022/09/01 00:56:51;;;;;;;1.70;1.60;;;24.80;49.70;;;;;;4870820;29;20429;-84
2022/09/01 00:59:19;;;;;;;2.10;1.90;;;24.80;49.60;;;;;;4896539;29;20432;-84
2022/09/01 01:01:52;;;;;;;2.30;2.10;;;24.80;49.60;;;;;;4898789;29;20445;-84
2022/09/01 01:04:30;;;;;;;2.30;2.10;;;24.80;49.60;;;;;;4949729;29;20486;-84
2022/09/01 01:07:02;;;;;;;3.07;2.00;;;24.80;49.60;;;;;;4949688;29;20951;-84
2022/09/01 01:10:03;;;;;;;2.40;2.20;;;24.80;49.60;;;;;;4947757;29;20486;-84
2022/09/01 01:12:36;;;;;;;2.57;1.80;;;24.80;49.60;;;;;;4968179;29;20410;-84
2022/09/01 01:15:07;;;;;;;2.20;1.80;;;24.80;49.60;;;;;;4952678;29;20457;-84
2022/09/01 01:34:49;;;;;;;1.97;1.87;;;24.80;49.60;;;;;;4928945;29;20444;-82
2022/09/01 01:37:26;;;;;;;2.40;2.20;;;24.80;49.60;;;;;;4913280;29;20412;-83
2022/09/01 01:39:55;;;;;;;3.10;2.07;;;24.80;49.60;;;;;;4913711;29;20479;-83
2022/09/01 01:42:34;;;;;;;3.23;1.97;;;24.80;49.60;;;;;;4928779;29;20419;-83
2022/09/01 01:45:29;;;;;;;2.23;2.03;;;24.80;49.60;;;;;;4938410;29;20458;-83
2022/09/01 01:48:14;;;;;;;2.37;2.17;;;24.80;49.60;;;;;;4938869;29;20529;-84
2022/09/01 01:50:51;;;;;;;2.03;1.83;;;24.80;49.60;;;;;;4938109;29;20422;-83
2022/09/01 01:53:36;;;;;;;2.40;1.90;;;24.80;49.50;;;;;;4938434;29;20415;-84
2022/09/01 01:56:38;;;;;;;2.13;1.90;;;24.80;49.50;;;;;;4954504;29;20399;-83
2022/09/01 01:59:25;;;;;;;;;;;;;;;;;;;;;
2022/09/01 02:01:56;;;;;;;2.30;2.10;;;24.80;49.50;;;;;;4955070;29;20426;-83
2022/09/01 02:11:08;;;;;;;1.93;1.80;;;24.80;49.50;;;;;;4997634;28;20398;-83
2022/09/01 02:13:36;;;;;;;2.17;1.97;;;24.80;49.50;;;;;;5015878;28;20406;-83
2022/09/01 02:16:15;;;;;;;2.20;2.00;;;24.80;49.50;;;;;;5011040;28;20419;-84
2022/09/01 02:18:54;;;;;;;3.17;2.37;;;24.80;49.50;;;;;;5030974;28;20432;-84
2022/09/01 02:28:04;;;;;;;2.93;1.90;;;24.80;49.50;;;;;;4953610;29;20584;-84
2022/09/01 02:31:02;;;;;;;1.90;1.80;;;24.80;49.50;;;;;;4937418;29;20431;-84
2022/09/01 02:33:35;;;;;;;2.53;2.20;;;24.80;49.60;;;;;;4937805;29;20434;-84
2022/09/01 02:36:20;;;;;;;2.20;1.87;;;24.80;49.60;;;;;;4937886;29;20427;-84
2022/09/01 02:38:59;;;;;;;2.70;2.50;;;24.80;49.50;;;;;;4937406;29;20431;-84
2022/09/01 02:41:57;;;;;;;2.13;1.93;;;24.80;49.50;;;;;;4953348;29;20473;-83
2022/09/01 02:44:39;;;;;;;2.27;2.07;;;24.80;49.50;;;;;;4938449;29;20411;-83
2022/09/01 02:47:12;;;;;;;2.20;2.00;;;24.80;49.50;;;;;;4937202;29;20421;-83
2022/09/01 02:53:16;;;;;;;2.50;2.30;;;24.80;49.50;;;;;;4921556;29;20411;-85
2022/09/01 02:55:45;;;;;;;2.13;1.97;;;24.80;49.50;;;;;;4957798;28;20513;-85
2022/09/01 02:58:18;;;;;;;2.60;2.03;;;24.80;49.50;;;;;;4994086;28;20410;-84
2022/09/01 03:01:26;;;;;;;2.20;2.00;;;24.80;50.00;;;;;;4994441;28;20472;-85
2022/09/01 03:04:06;;;;;;;3.40;2.57;;;24.80;49.50;;;;;;4979758;28;20428;-85
2022/09/01 03:06:36;;;;;;;1.90;1.80;;;24.80;49.50;;;;;;4995540;28;20413;-85
2022/09/01 03:09:11;;;;;;;2.10;1.90;;;24.80;49.50;;;;;;4995778;28;20427;-85
2022/09/01 03:11:51;;;;;;;2.97;1.90;;;24.80;49.50;;;;;;4995909;28;20413;-84
2022/09/01 03:14:29;;;;;;;3.80;2.10;;;24.80;50.10;;;;;;5025652;28;20402;-84
2022/09/01 03:16:59;;;;;;;2.90;2.37;;;24.80;49.50;;;;;;5050185;28;20433;-84
2022/09/01 03:19:43;;;;;;;2.20;2.00;;;24.80;49.60;;;;;;5050389;28;20422;-84
2022/09/01 03:22:09;;;;;;;2.00;1.80;;;24.80;49.50;;;;;;5051289;28;20445;-84
2022/09/01 03:24:37;;;;;;;3.03;2.37;;;24.80;49.50;;;;;;5049638;28;20438;-84
2022/09/01 03:27:07;;;;;;;2.20;2.00;;;24.80;49.50;;;;;;5049560;28;20449;-84
2022/09/01 03:29:34;;;;;;;2.80;2.27;;;24.80;49.50;;;;;;5050629;28;20410;-84
2022/09/01 03:32:01;;;;;;;2.77;2.30;;;24.80;49.50;;;;;;5050057;28;20421;-84
2022/09/01 03:34:45;;;;;;;2.10;2.00;;;24.80;49.50;;;;;;5049487;28;20406;-84
2022/09/01 03:37:46;;;;;;;2.80;2.60;;;24.80;49.50;;;;;;5049784;28;20470;-84
2022/09/01 03:41:14;;;;;;;;;;;;;;;;;;;;;
2022/09/01 03:44:02;;;;;;;2.37;2.17;;;24.80;49.50;;;;;;5018357;28;20486;-84
2022/09/01 03:53:26;;;;;;;3.13;2.00;;;24.70;49.50;;;;;;4958657;29;20420;-86
2022/09/01 03:55:58;;;;;;;2.47;2.00;;;24.70;49.60;;;;;;4954582;29;20417;-85
2022/09/01 03:58:34;;;;;;;2.23;2.03;;;24.70;49.60;;;;;;4954591;29;20497;-85
2022/09/01 04:01:03;;;;;;;2.30;2.10;;;24.70;49.60;;;;;;4952751;29;20457;-84
2022/09/01 04:03:43;;;;;;;2.47;2.17;;;24.70;49.60;;;;;;4954169;29;20722;-84
2022/09/01 04:06:29;;;;;;;;;;;;;;;;;;;;;
2022/09/01 04:09:05;;;;;;;2.40;2.20;;;24.70;49.50;;;;;;4970274;29;20509;-85
2022/09/01 04:11:35;;;;;;;2.50;2.30;;;24.70;49.50;;;;;;4954628;29;20939;-85
2022/09/01 04:14:08;;;;;;;2.50;1.97;;;24.70;49.50;;;;;;4952969;29;20513;-84
2022/09/01 04:19:50;;;;;;;2.10;1.97;;;24.70;49.50;;;;;;4969015;29;20433;-86
2022/09/01 04:22:17;;;;;;;2.50;2.30;;;24.70;49.50;;;;;;4953112;29;20427;-86
2022/09/01 04:24:52;;;;;;;2.50;2.30;;;24.60;49.50;;;;;;4994522;28;20415;-86
2022/09/01 04:27:39;;;;;;;2.57;2.37;;;24.70;49.60;;;;;;5012707;28;20842;-86
2022/09/01 04:30:11;;;;;;;2.30;2.10;;;24.70;49.60;;;;;;5000194;28;20404;-86
2022/09/01 04:39:11;;;;;;;2.50;2.30;;;24.60;49.50;;;;;;5030307;28;20879;-86
2022/09/01 04:42:50;;;;;;;5.27;2.60;;;24.60;49.60;;;;;;5013264;28;20455;-85
2022/09/01 04:45:00;;;;;;;2.73;2.50;;;24.60;49.60;;;;;;5025327;28;20410;-86
2022/09/01 04:47:29;;;;;;;2.87;2.57;;;24.60;49.60;;;;;;5011893;28;20743;-86
2022/09/01 04:50:00;;;;;;;2.67;2.47;;;24.60;49.60;;;;;;5011116;28;20479;-85
2022/09/01 04:52:34;;;;;;;3.10;2.80;;;24.60;49.50;;;;;;5011318;28;20418;-85
2022/09/01 04:55:22;;;;;;;2.67;2.20;;;24.60;49.50;;;;;;5011600;28;20419;-85
2022/09/01 04:58:03;;;;;;;2.23;1.93;;;24.60;49.50;;;;;;5012489;28;20411;-85
2022/09/01 05:00:31;;;;;;;2.40;2.20;;;24.60;49.50;;;;;;5011714;28;20455;-86
2022/09/01 05:03:23;;;;;;;2.20;2.00;;;24.60;49.50;;;;;;5011921;28;20403;-85
2022/09/01 05:06:01;;;;;;;2.30;2.10;;;24.60;49.50;;;;;;5011015;28;20487;-84
2022/09/01 05:08:40;;;;;;;2.20;2.00;;;24.60;49.50;;;;;;5011020;28;20478;-84
2022/09/01 05:11:10;;;;;;;2.57;2.37;;;24.60;49.50;;;;;;5012178;28;20407;-84
2022/09/01 05:13:38;;;;;;;2.30;2.10;;;24.60;49.60;;;;;;5028402;28;20411;-85
2022/09/01 05:16:11;;;;;;;3.07;2.77;;;24.60;49.60;;;;;;5011933;28;20443;-85
2022/09/01 05:18:46;;;;;;;2.60;2.40;;;24.60;49.50;;;;;;5029509;28;20407;-85
2022/09/01 05:21:23;;;;;;;2.40;2.20;;;24.60;49.50;;;;;;5011501;28;20451;-85
2022/09/01 05:24:02;;;;;;;2.20;2.00;;;24.60;49.50;;;;;;5011728;28;20422;-85
2022/09/01 05:26:46;;;;;;;4.83;2.40;;;24.60;49.50;;;;;;5011528;28;20439;-85
2022/09/01 05:29:24;;;;;;;2.87;2.67;;;24.60;49.50;;;;;;5012183;28;20418;-86
2022/09/01 05:31:54;;;;;;;2.67;2.47;;;24.60;49.50;;;;;;5012037;28;20514;-86
2022/09/01 05:40:39;;;;;;;3.23;2.50;;;24.60;49.50;;;;;;5028986;28;20458;-86
2022/09/01 05:43:16;;;;;;;2.97;2.10;;;24.50;49.40;;;;;;5010380;28;20427;-86
2022/09/01 05:45:57;;;;;;;3.83;2.20;;;24.50;49.50;;;;;;5011803;28;20443;-86
2022/09/01 05:48:33;;;;;;;3.73;2.70;;;24.50;49.50;;;;;;5024592;28;20426;-85
2022/09/01 05:51:16;;;;;;;4.10;2.93;;;24.50;49.50;;;;;;5031230;28;20485;-85
2022/09/01 05:53:57;;;;;;;2.90;2.60;;;24.50;49.50;;;;;;5048017;28;20493;-85
2022/09/01 05:56:37;;;;;;;;;;;;;;;;;;;;;
2022/09/01 05:59:05;;;;;;;3.07;2.83;;;24.50;49.50;;;;;;5048360;28;20493;-85
2022/09/01 06:01:49;;;;;;;2.83;2.50;;;24.50;49.50;;;;;;5030826;28;20798;-85
2022/09/01 06:04:18;;;;;;;2.83;2.63;;;24.60;49.50;;;;;;5027166;28;20431;-85
2022/09/01 06:06:51;;;;;;;3.43;2.60;;;24.50;49.50;;;;;;5028315;28;20475;-85
2022/09/01 06:09:19;;;;;;;2.90;2.40;;;24.50;49.40;;;;;;5010876;28;20431;-85
2022/09/01 06:11:51;;;;;;;6.27;2.93;;;24.50;49.40;;;;;;5028334;28;20417;-85
2022/09/01 06:14:19;;;;;;;2.70;2.40;;;24.50;49.40;;;;;;5011150;28;20454;-85
2022/09/01 06:16:55;;;;;;;5.20;2.50;;;24.60;49.60;;;;;;5034623;28;20763;-84
2022/09/01 06:19:27;;;;;;;2.97;2.67;;;24.60;49.50;;;;;;5029678;28;20432;-84
2022/09/01 06:22:09;;;;;;;3.30;2.77;;;24.50;49.40;;;;;;5033757;28;20470;-84
2022/09/01 06:24:40;;;;;;;3.10;2.70;;;24.60;49.50;;;;;;5038670;28;20453;-84
2022/09/01 06:27:16;;;;;;;2.40;2.20;;;24.60;49.50;;;;;;5023876;28;20438;-84
2022/09/01 06:29:55;;;;;;;3.30;2.50;;;24.50;49.50;;;;;;5027234;28;20434;-84
2022/09/01 06:32:24;;;;;;;2.63;2.43;;;24.60;49.60;;;;;;5021122;28;20819;-84
2022/09/01 06:34:51;;;;;;;3.10;2.53;;;24.50;49.40;;;;;;5035684;28;20510;-85
2022/09/01 06:37:21;;;;;;;2.80;2.60;;;24.60;49.90;;;;;;5048915;28;20796;-84
2022/09/01 06:39:51;;;;;;;2.40;2.20;;;24.60;49.50;;;;;;5027133;28;20426;-87
2022/09/01 06:42:27;;;;;;;3.10;2.30;;;24.60;49.50;;;;;;5028453;28;20450;-84
2022/09/01 06:45:07;;;;;;;3.03;2.83;;;24.60;49.60;;;;;;5021865;28;20423;-83
2022/09/01 06:47:46;;;;;;;3.10;2.63;;;24.60;49.60;;;;;;5031615;28;20732;-85
2022/09/01 06:50:18;;;;;;;4.93;2.23;;;24.60;49.50;;;;;;5022255;28;20453;-85
2022/09/01 06:52:45;;;;;;;2.50;2.10;;;24.60;49.60;;;;;;5028345;28;20444;-85
2022/09/01 06:55:14;;;;;;;3.80;2.40;;;24.60;49.60;;;;;;5023068;28;20477;-85
2022/09/01 06:57:48;;;;;;;3.00;2.80;;;24.60;49.60;;;;;;5029717;28;20481;-84
2022/09/01 07:00:23;;;;;;;2.97;2.43;;;24.60;49.60;;;;;;5011446;28;20549;-84
2022/09/01 07:02:59;;;;;;;2.37;2.13;;;24.60;49.60;;;;;;5029135;28;20780;-85
2022/09/01 07:05:50;;;;;;;2.70;2.40;;;24.60;49.60;;;;;;5039258;28;20415;-84
2022/09/01 07:08:55;;;;;;;2.53;2.33;;;24.60;49.60;;;;;;5021722;28;20435;-84
2022/09/01 07:11:51;;;;;;;2.67;2.47;;;24.60;49.50;;;;;;5008893;28;20422;-84
2022/09/01 07:14:26;;;;;;;4.23;2.90;;;24.60;49.50;;;;;;5022952;28;20427;-84
2022/09/01 07:16:59;;;;;;;3.50;2.60;;;24.50;49.40;;;;;;5030349;28;20422;-84
2022/09/01 07:20:02;;;;;;;2.30;2.10;;;24.50;49.50;;;;;;5031589;28;20414;-85
2022/09/01 07:23:01;;;;;;;2.37;2.17;;;24.60;49.50;;;;;;5031852;28;20418;-84
2022/09/01 07:25:57;;;;;;;2.40;2.20;;;24.50;49.40;;;;;;5011722;28;20438;-84
2022/09/01 07:28:54;;;;;;;2.23;2.03;;;24.50;50.00;;;;;;5012016;28;20407;-84
2022/09/01 07:31:43;;;;;;;4.00;2.37;;;24.50;49.40;;;;;;5012251;28;20412;-84
2022/09/01 07:34:22;;;;;;;2.43;2.23;;;24.50;49.40;;;;;;5017844;28;20434;-84
2022/09/01 07:37:22;;;;;;;2.43;2.23;;;24.50;49.40;;;;;;5015806;28;20415;-84
2022/09/01 07:39:57;;;;;;;2.03;1.83;;;24.50;49.30;;;;;;5015611;28;20429;-84
2022/09/01 07:42:29;;;;;;;2.40;2.00;;;24.50;49.30;;;;;;5017548;28;20418;-85
2022/09/01 07:45:02;;;;;;;3.63;2.40;;;24.50;49.30;;;;;;5033699;28;20403;-85
2022/09/01 07:47:36;;;;;;;3.33;2.20;;;24.50;49.30;;;;;;5016051;28;20723;-85
2022/09/01 07:50:11;;;;;;;2.60;2.40;;;24.50;49.30;;;;;;5014953;28;20419;-85
2022/09/01 07:52:48;;;;;;;2.13;1.93;;;24.50;49.30;;;;;;5014984;28;20458;-85
2022/09/01 07:55:21;;;;;;;2.47;1.93;;;24.50;49.80;;;;;;5013876;28;20461;-86
2022/09/01 07:57:58;;;;;;;2.80;1.93;;;24.50;49.30;;;;;;5013887;28;20442;-82
2022/09/01 08:00:34;;;;;;;2.83;2.40;;;24.50;49.20;;;;;;5013362;28;20462;-83
2022/09/01 08:03:18;;;;;;;2.03;1.90;;;24.50;49.10;;;;;;5030720;28;20418;-83
2022/09/01 08:12:59;;;;;;;2.07;1.87;;;24.50;49.10;;;;;;4970739;29;21502;-84
2022/09/01 08:18:52;;;;;;;2.33;2.13;;;24.40;49.10;;;;;;4912860;29;20433;-83
2022/09/01 08:24:53;;;;;;;2.20;2.00;;;24.50;49.20;;;;;;4913122;29;20408;-83
2022/09/01 08:27:58;;;;;;;2.63;2.20;;;24.40;49.20;;;;;;4910524;29;20565;-83
2022/09/01 08:34:58;;;;;;;;;;;;;;;;;;;;;
2022/09/01 08:37:32;;;;;;;2.13;1.90;;;24.40;49.10;;;;;;4837516;29;20499;-83
2022/09/01 08:43:50;;;;;;;4.30;2.00;;;24.40;49.10;;;;;;4835218;29;20499;-82
2022/09/01 08:46:40;;;;;;;;;;;;;;;;;;;;;
2022/09/01 08:49:35;;;;;;;3.13;1.87;;;24.50;49.20;;;;;;4859862;29;20466;-84
2022/09/01 08:52:15;;;;;;;2.43;2.00;;;24.50;49.00;;;;;;4885417;29;20503;-84
2022/09/01 08:55:09;;;;;;;2.10;1.80;;;24.50;49.00;;;;;;4922807;29;20429;-85
2022/09/01 08:57:44;;;;;;;1.80;1.70;;;24.50;49.00;;;;;;4951222;29;20442;-84
2022/09/01 09:00:15;;;;;;;1.80;1.60;;;24.50;49.00;;;;;;4935848;29;20534;-86
2022/09/01 09:03:04;;;;;;;2.50;1.93;;;24.50;49.00;;;;;;4934941;29;20430;-84
2022/09/01 09:09:05;;;;;;;2.17;1.70;;;24.50;48.80;;;;;;4950451;29;20422;-83
2022/09/01 09:12:14;;;;;;;2.00;1.90;;;24.50;48.70;;;;;;4950357;29;20414;-83
2022/09/01 09:15:17;;;;;;;2.17;1.40;;;24.50;48.60;;;;;;4998879;28;20451;-83
2022/09/01 09:17:58;;;;;;;1.93;1.73;;;24.50;48.60;;;;;;5049061;28;20712;-83
2022/09/01 09:20:28;;;;;;;2.43;1.73;;;24.50;48.60;;;;;;5050330;28;20481;-82
2022/09/01 09:22:55;;;;;;;2.83;2.00;;;24.50;48.60;;;;;;5049919;28;20517;-84
2022/09/01 09:25:28;;;;;;;3.60;1.50;;;24.50;48.50;;;;;;5049538;28;20410;-83
2022/09/01 09:28:38;;;;;;;2.63;1.80;;;24.50;48.50;;;;;;5049052;28;20433;-81
2022/09/01 09:31:30;;;;;;;2.23;1.77;;;24.50;48.40;;;;;;5049296;28;20419;-82
2022/09/01 09:34:03;;;;;;;1.90;1.70;;;24.50;48.50;;;;;;5049375;28;20410;-82
2022/09/01 09:36:49;;;;;;;1.53;1.40;;;24.50;48.50;;;;;;5032188;28;20426;-84
2022/09/01 09:39:19;;;;;;;2.53;1.70;;;24.50;48.40;;;;;;5048114;28;20418;-82
2022/09/01 09:42:15;;;;;;;2.40;1.70;;;24.50;48.50;;;;;;5047773;28;20466;-82
2022/09/01 09:44:50;;;;;;;3.03;1.80;;;24.50;48.40;;;;;;5048633;28;20414;-82
2022/09/01 10:01:54;;;;;;;1.80;1.50;;;24.50;48.10;;;;;;4947584;29;20465;-83
2022/09/01 10:08:09;;;;;;;;;;;;;;;;;;;;;
2022/09/01 10:17:33;;;;;;;2.33;2.00;;;24.50;48.10;;;;;;4928555;29;20420;-85
2022/09/01 10:23:45;;;;;;;3.00;2.10;;;24.50;48.00;;;;;;4890984;29;20425;-84
2022/09/01 10:33:20;;;;;;;2.40;2.20;;;24.50;47.80;;;;;;4849698;29;20436;-84
2022/09/01 10:36:40;;;;;;;2.37;1.77;;;24.50;47.90;;;;;;4845435;29;20424;-84
2022/09/01 10:39:43;;;;;;;2.10;1.90;;;24.50;47.80;;;;;;4898986;29;20434;-84
2022/09/01 10:49:24;;;;;;;;;;;;;;;;;;;;;
2022/09/01 10:52:15;;;;;;;;;;;;;;;;;;;;;
2022/09/01 11:09:24;;;;;;;2.07;1.87;;;24.50;47.60;;;;;;4857777;29;20434;-82
2022/09/01 11:22:48;;;;;;;;;;;;;;;;;;;;;
2022/09/01 11:38:50;;;;;;;2.90;2.00;;;24.60;48.00;;;;;;4817902;29;20412;-83
2022/09/01 11:42:04;;;;;;;;;;;;;;;;;;;;;
2022/09/01 12:05:41;;;;;;;2.33;1.93;;;24.60;48.20;;;;;;4817590;29;20417;-82
2022/09/01 12:26:10;;;;;;;2.53;1.70;;;24.70;48.10;;;;;;4783864;30;20601;-85
2022/09/01 12:36:10;;;;;;;2.10;1.67;;;24.70;48.00;;;;;;4818443;29;20404;-84
2022/09/01 12:42:33;;;;;;;2.43;1.70;;;24.70;48.10;;;;;;4813930;29;20495;-84
2022/09/01 12:49:33;;;;;;;;;;;;;;;;;;;;;
2022/09/01 13:05:39;;;;;;;3.50;2.00;;;24.80;48.30;;;;;;4875126;29;20394;-84
2022/09/01 13:18:59;;;;;;;2.73;1.90;;;24.80;48.30;;;;;;4872376;29;20702;-82
2022/09/01 13:21:47;;;;;;;1.97;1.83;;;24.80;48.30;;;;;;4881628;29;20459;-84
2022/09/01 13:24:53;;;;;;;2.10;1.80;;;24.80;48.30;;;;;;4877536;29;20502;-82
2022/09/01 13:31:21;;;;;;;3.43;2.07;;;24.80;48.20;;;;;;4877762;29;20462;-82
2022/09/01 13:34:19;;;;;;;2.17;1.60;;;24.80;48.20;;;;;;4844719;29;20471;-83
2022/09/01 13:37:12;;;;;;;1.93;1.73;;;24.80;48.20;;;;;;4876746;29;20433;-83
2022/09/01 13:40:11;;;;;;;;;;;;;;;;;;;;;
2022/09/01 13:46:47;;;;;;;3.50;2.00;;;24.90;48.20;;;;;;4858105;29;20407;-84
2022/09/01 13:53:29;;;;;;;2.33;1.97;;;24.90;48.20;;;;;;4887017;29;20449;-83
2022/09/01 13:56:22;;;;;;;2.70;1.80;;;24.90;48.10;;;;;;4879010;29;20768;-82
2022/09/01 14:26:09;;;;;;;;;;;;;;;;;;;;;
2022/09/01 14:29:28;;;;;;;2.10;1.80;;;24.80;47.60;;;;;;4969416;29;20438;-83
2022/09/01 14:38:50;;;;;;;3.00;1.80;;;24.80;47.00;;;;;;4877883;29;20497;-83
2022/09/01 14:41:24;;;;;;;2.43;2.23;;;24.80;47.20;;;;;;4911970;29;20533;-84
2022/09/01 14:44:01;;;;;;;2.40;1.90;;;24.80;47.50;;;;;;4915419;29;20447;-83
2022/09/01 14:46:32;;;;;;;2.10;1.90;;;24.80;47.50;;;;;;4916931;29;20517;-83
2022/09/01 14:49:00;;;;;;;2.60;1.80;;;24.80;47.40;;;;;;4934040;29;20419;-82
2022/09/01 14:51:29;;;;;;;2.50;1.93;;;24.80;47.40;;;;;;4933485;29;20426;-79
2022/09/01 14:53:58;;;;;;;2.03;1.70;;;24.80;47.10;;;;;;4919201;29;20511;-80
2022/09/01 14:56:37;;;;;;;1.80;1.63;;;24.80;47.20;;;;;;4935294;29;20940;-81
2022/09/01 14:59:30;;;;;;;2.07;1.70;;;24.80;47.00;;;;;;4934391;29;20452;-84
2022/09/01 15:01:58;;;;;;;2.63;1.80;;;24.90;47.00;;;;;;4931652;28;20468;-80
2022/09/01 15:04:30;;;;;;;3.27;2.50;;;24.80;47.00;;;;;;4992998;28;20421;-81
2022/09/01 15:07:20;;;;;;;1.83;1.60;;;24.90;47.10;;;;;;4994379;28;20728;-81
2022/09/01 15:09:58;;;;;;;2.03;1.90;;;24.80;47.10;;;;;;4976873;28;20405;-80
2022/09/01 15:12:29;;;;;;;1.73;1.63;;;24.80;47.10;;;;;;5022523;28;20446;-81
2022/09/01 15:14:57;;;;;;;2.00;1.53;;;24.80;46.80;;;;;;4996953;28;20424;-81
2022/09/01 15:17:27;;;;;;;1.60;1.50;;;24.80;46.70;;;;;;5043158;28;20402;-80
2022/09/01 15:19:53;;;;;;;2.10;1.90;;;24.80;46.80;;;;;;5036159;28;20399;-80
2022/09/01 15:22:26;;;;;;;2.23;1.83;;;24.80;46.80;;;;;;5053238;28;20410;-80
2022/09/01 15:25:07;;;;;;;1.83;1.70;;;24.90;46.70;;;;;;5032111;28;20443;-80
2022/09/01 15:27:49;;;;;;;2.33;1.63;;;24.80;46.60;;;;;;5028619;28;20434;-80
2022/09/01 15:30:21;;;;;;;3.17;2.50;;;24.80;46.50;;;;;;5041456;28;20412;-81
2022/09/01 15:33:00;;;;;;;2.13;1.77;;;24.80;46.70;;;;;;5016649;28;20419;-79
2022/09/01 15:35:30;;;;;;;1.80;1.70;;;24.80;46.70;;;;;;5033357;28;20457;-81
2022/09/01 15:37:59;;;;;;;3.50;2.17;;;24.80;46.70;;;;;;5032298;28;20423;-80
2022/09/01 15:40:26;;;;;;;2.63;1.97;;;24.80;46.70;;;;;;5033471;28;20503;-81
2022/09/01 15:42:55;;;;;;;3.23;1.87;;;24.80;46.80;;;;;;5022687;28;20446;-81
2022/09/01 15:45:34;;;;;;;2.10;1.90;;;24.80;46.60;;;;;;5035404;28;20446;-80
2022/09/01 15:48:02;;;;;;;2.27;2.07;;;24.80;46.50;;;;;;5053320;28;20402;-80
2022/09/01 15:54:15;;;;;;;2.50;1.90;;;24.80;46.50;;;;;;5052587;28;20362;-81
2022/09/01 15:56:46;;;;;;;2.90;2.07;;;24.80;46.60;;;;;;5054429;28;20415;-80
2022/09/01 15:59:15;;;;;;;2.20;2.00;;;24.80;46.40;;;;;;5039224;28;20418;-80
2022/09/01 16:01:45;;;;;;;2.90;1.87;;;24.80;46.20;;;;;;5038844;28;20508;-81
2022/09/01 16:04:16;;;;;;;2.23;2.03;;;24.80;45.70;;;;;;5048345;28;20449;-83
2022/09/01 16:06:44;;;;;;;2.73;1.63;;;24.80;45.50;;;;;;5052196;28;20493;-82
2022/09/01 16:09:11;;;;;;;1.90;1.70;;;24.80;45.50;;;;;;5036303;28;20478;-83
2022/09/01 16:11:48;;;;;;;1.70;1.60;;;24.80;45.60;;;;;;5039337;28;20417;-83
2022/09/01 16:14:14;;;;;;;2.00;1.80;;;24.80;45.70;;;;;;5036491;28;20432;-82
2022/09/01 16:17:28;;;;;;;2.37;1.87;;;24.80;46.20;;;;;;5035779;28;20415;-83
2022/09/01 16:20:01;;;;;;;1.67;1.50;;;24.80;45.80;;;;;;5029478;28;20828;-83
2022/09/01 16:22:43;;;;;;;2.30;1.90;;;24.70;45.30;;;;;;5034256;28;20410;-83
2022/09/01 16:25:29;;;;;;;3.67;1.90;;;24.80;45.50;;;;;;5035253;28;20430;-82
2022/09/01 16:27:56;;;;;;;1.70;1.60;;;24.80;45.80;;;;;;5030762;28;20725;-83
2022/09/01 16:30:26;;;;;;;5.10;1.97;;;24.70;45.60;;;;;;5030796;28;20455;-83
2022/09/01 16:32:52;;;;;;;1.87;1.70;;;24.70;45.40;;;;;;5033226;28;20426;-83
2022/09/01 16:35:24;;;;;;;2.07;1.87;;;24.70;45.60;;;;;;5033756;28;20438;-83
2022/09/01 16:38:17;;;;;;;2.03;1.83;;;24.70;45.70;;;;;;5050232;28;20502;-84
2022/09/01 16:41:26;;;;;;;2.10;1.80;;;24.70;45.70;;;;;;5036614;28;20455;-84
2022/09/01 16:44:14;;;;;;;1.70;1.50;;;24.70;45.80;;;;;;4956808;29;20438;-84
2022/09/01 16:47:24;;;;;;;2.00;1.80;;;24.70;45.90;;;;;;4940861;29;20415;-84
2022/09/01 16:50:08;;;;;;;2.07;1.87;;;24.70;45.70;;;;;;4965169;29;20411;-84
2022/09/01 16:53:29;;;;;;;2.33;1.57;;;24.70;45.70;;;;;;4939537;29;20400;-84
2022/09/01 16:56:32;;;;;;;3.33;1.90;;;24.70;45.80;;;;;;4932378;29;20412;-83
2022/09/01 16:59:17;;;;;;;2.40;1.90;;;24.70;45.80;;;;;;4915760;29;20423;-83
2022/09/01 17:01:54;;;;;;;2.30;1.97;;;24.70;45.80;;;;;;4923197;29;20550;-84
2022/09/01 17:05:02;;;;;;;2.43;2.10;;;24.70;45.70;;;;;;4934118;29;20414;-83
2022/09/01 17:07:40;;;;;;;2.07;1.77;;;24.70;45.80;;;;;;4909785;29;20416;-83
2022/09/01 17:10:21;;;;;;;1.80;1.70;;;24.70;45.70;;;;;;4936290;29;20433;-83
2022/09/01 17:12:55;;;;;;;2.57;1.60;;;24.70;45.70;;;;;;4936234;29;20412;-82
2022/09/01 17:19:07;;;;;;;1.70;1.43;;;24.70;45.90;;;;;;4916740;29;20404;-83
2022/09/01 17:21:51;;;;;;;1.97;1.77;;;24.70;45.90;;;;;;4967377;28;20452;-83
2022/09/01 17:24:41;;;;;;;1.60;1.43;;;24.60;45.80;;;;;;4991450;28;20846;-81
2022/09/01 17:27:23;;;;;;;2.00;1.90;;;24.70;45.90;;;;;;4983206;28;20471;-79
2022/09/01 17:29:55;;;;;;;1.73;1.60;;;24.70;45.90;;;;;;4987932;28;20393;-80
2022/09/01 17:33:00;;;;;;;2.17;1.53;;;24.70;45.80;;;;;;4988761;28;20886;-81
2022/09/01 17:35:54;;;;;;;1.77;1.67;;;24.70;45.70;;;;;;4974005;28;20397;-81
2022/09/01 17:38:44;;;;;;;2.13;1.93;;;24.70;45.80;;;;;;4990074;28;20489;-81
2022/09/01 17:48:05;;;;;;;1.70;1.60;;;24.60;45.70;;;;;;4990802;28;20392;-80
2022/09/01 17:51:11;;;;;;;2.53;1.83;;;24.60;45.70;;;;;;4974481;28;20401;-81
2022/09/01 17:54:09;;;;;;;2.10;1.90;;;24.60;45.70;;;;;;4972047;28;20428;-80
2022/09/01 17:57:03;;;;;;;2.17;1.50;;;24.60;45.70;;;;;;5010881;28;20447;-81
2022/09/01 17:59:37;;;;;;;2.00;1.80;;;24.60;45.60;;;;;;5011130;28;20740;-80
2022/09/01 18:02:45;;;;;;;2.40;1.63;;;24.60;45.70;;;;;;5012084;28;20752;-80
2022/09/01 18:05:26;;;;;;;2.00;1.80;;;24.60;45.90;;;;;;5032770;28;20767;-80
2022/09/01 18:07:58;;;;;;;2.10;1.83;;;24.60;45.80;;;;;;5048834;28;20393;-80
2022/09/01 18:10:37;;;;;;;1.90;1.70;;;24.60;45.80;;;;;;5047833;28;20418;-80
2022/09/01 18:13:23;;;;;;;2.20;1.90;;;24.60;45.80;;;;;;5048786;28;20448;-80
2022/09/01 18:15:52;;;;;;;1.63;1.53;;;24.60;45.80;;;;;;5047220;28;20442;-80
2022/09/01 18:18:37;;;;;;;1.30;1.20;;;24.60;45.80;;;;;;5047922;28;20427;-81
2022/09/01 18:21:11;;;;;;;1.70;1.50;;;24.60;45.80;;;;;;5047854;28;20454;-80
2022/09/01 18:23:52;;;;;;;1.90;1.70;;;24.60;45.70;;;;;;5045074;28;20430;-82
2022/09/01 18:26:28;;;;;;;1.60;1.30;;;24.60;45.90;;;;;;5047556;28;20510;-82
2022/09/01 18:28:55;;;;;;;1.50;1.27;;;24.60;45.60;;;;;;5047593;28;20410;-84
2022/09/01 18:31:33;;;;;;;1.73;1.57;;;24.60;45.50;;;;;;5046769;28;20422;-80
2022/09/01 18:34:50;;;;;;;1.70;1.33;;;24.60;45.60;;;;;;5047784;28;20422;-80
2022/09/01 18:37:22;;;;;;;3.27;1.57;;;24.60;45.50;;;;;;5045853;28;20452;-80
2022/09/01 18:40:13;;;;;;;1.90;1.70;;;24.60;45.40;;;;;;5046085;28;20410;-79
2022/09/01 18:43:20;;;;;;;1.70;1.60;;;24.60;45.50;;;;;;5048165;28;20418;-82
2022/09/01 18:45:54;;;;;;;2.30;1.73;;;24.60;45.50;;;;;;4952892;29;20430;-82
2022/09/01 18:49:02;;;;;;;2.20;1.43;;;24.60;45.50;;;;;;4936195;29;20865;-81
2022/09/01 18:52:12;;;;;;;2.10;1.80;;;24.60;45.50;;;;;;4935500;29;20426;-81
2022/09/01 18:55:04;;;;;;;2.00;1.70;;;24.50;45.30;;;;;;4964725;29;20429;-81
2022/09/01 18:57:43;;;;;;;2.27;1.63;;;24.50;45.30;;;;;;4956385;29;20518;-81
2022/09/01 19:00:54;;;;;;;;;;;;;;;;;;;;;
2022/09/01 19:03:49;;;;;;;1.60;1.40;;;24.50;45.40;;;;;;4963835;29;20490;-82
2022/09/01 19:06:59;;;;;;;2.40;1.67;;;24.50;45.40;;;;;;4967339;29;20907;-82
2022/09/01 19:09:39;;;;;;;2.30;1.90;;;24.50;45.70;;;;;;4950136;29;20410;-83
2022/09/01 19:12:40;;;;;;;;;;;;;;;;;;;;;
2022/09/01 19:15:40;;;;;;;1.70;1.60;;;24.50;45.50;;;;;;4967690;29;20512;-82
2022/09/01 19:19:00;;;;;;;1.40;1.23;;;24.50;45.50;;;;;;4950995;29;20485;-83
2022/09/01 19:24:49;;;;;;;1.60;1.50;;;24.50;45.40;;;;;;4981413;28;20432;-82
2022/09/01 19:27:27;;;;;;;1.47;1.37;;;24.50;45.30;;;;;;4991281;28;20422;-79
2022/09/01 19:30:09;;;;;;;1.50;1.40;;;24.50;45.80;;;;;;5011453;28;20435;-79
2022/09/01 19:32:35;;;;;;;2.13;1.50;;;24.50;45.30;;;;;;5014461;28;20424;-79
2022/09/01 19:35:13;;;;;;;2.27;1.57;;;24.50;45.30;;;;;;4997715;28;20408;-79
2022/09/01 19:37:41;;;;;;;2.47;2.10;;;24.50;45.20;;;;;;4996274;28;20435;-79